Terminal Aerodrome Forecast
Issued by NWS Austin/San Antonio, TX

Home | Current Version | Previous Version | Text Only | Print | Product List | Glossary On
Versions: 1 2 3 4 5 6 7 8 9 10 11
347
FTUS44 KEWX 121736
TAFDRT
TAF
KDRT 121736Z 1218/1318 12005KT P6SM SKC
     FM130600 VRB03KT P6SM FEW250
     FM131400 09005KT P6SM OVC015
     FM131700 13010KT P6SM BKN250=

USA.gov is the U.S. government's official web portal to all federal, state and local government web resources and services.